sensor_id;sensor_type;location;lat;lon;timestamp;P1;durP1;ratioP1;P2;durP2;ratioP2
26774;SDS011;14362;51.902;7.626;2022-11-20T00:00:38;27.25;;;16.65;;
26774;SDS011;14362;51.902;7.626;2022-11-20T00:04:39;29.52;;;17.10;;
26774;SDS011;14362;51.902;7.626;2022-11-20T00:08:42;30.42;;;16.05;;
26774;SDS011;14362;51.902;7.626;2022-11-20T00:12:44;33.80;;;16.73;;
26774;SDS011;14362;51.902;7.626;2022-11-20T00:16:45;26.92;;;16.92;;
26774;SDS011;14362;51.902;7.626;2022-11-20T00:20:47;29.98;;;16.48;;
26774;SDS011;14362;51.902;7.626;2022-11-20T00:24:49;29.98;;;16.58;;
26774;SDS011;14362;51.902;7.626;2022-11-20T00:28:51;30.50;;;18.73;;
26774;SDS011;14362;51.902;7.626;2022-11-20T00:32:56;33.55;;;19.58;;
26774;SDS011;14362;51.902;7.626;2022-11-20T00:36:57;40.97;;;21.48;;
26774;SDS011;14362;51.902;7.626;2022-11-20T00:41:01;41.90;;;22.38;;
26774;SDS011;14362;51.902;7.626;2022-11-20T00:45:04;32.83;;;19.48;;
26774;SDS011;14362;51.902;7.626;2022-11-20T00:49:07;47.03;;;23.83;;
26774;SDS011;14362;51.902;7.626;2022-11-20T00:53:08;38.42;;;22.15;;
26774;SDS011;14362;51.902;7.626;2022-11-20T00:57:11;32.95;;;19.23;;
26774;SDS011;14362;51.902;7.626;2022-11-20T01:01:13;30.67;;;19.00;;
26774;SDS011;14362;51.902;7.626;2022-11-20T01:05:16;30.52;;;19.08;;
26774;SDS011;14362;51.902;7.626;2022-11-20T01:09:18;33.90;;;18.52;;
26774;SDS011;14362;51.902;7.626;2022-11-20T01:13:20;27.45;;;17.80;;
26774;SDS011;14362;51.902;7.626;2022-11-20T01:17:40;34.55;;;19.20;;
26774;SDS011;14362;51.902;7.626;2022-11-20T01:21:42;32.38;;;18.63;;
26774;SDS011;14362;51.902;7.626;2022-11-20T01:25:45;31.73;;;19.45;;
26774;SDS011;14362;51.902;7.626;2022-11-20T01:29:47;31.55;;;18.23;;
26774;SDS011;14362;51.902;7.626;2022-11-20T01:33:50;33.92;;;19.55;;
26774;SDS011;14362;51.902;7.626;2022-11-20T01:37:52;34.38;;;19.15;;
26774;SDS011;14362;51.902;7.626;2022-11-20T01:41:54;32.03;;;18.80;;
26774;SDS011;14362;51.902;7.626;2022-11-20T01:46:15;39.47;;;18.50;;
26774;SDS011;14362;51.902;7.626;2022-11-20T01:50:19;34.63;;;18.58;;
26774;SDS011;14362;51.902;7.626;2022-11-20T01:54:25;32.10;;;18.15;;
26774;SDS011;14362;51.902;7.626;2022-11-20T01:58:33;31.40;;;18.05;;
26774;SDS011;14362;51.902;7.626;2022-11-20T02:02:37;31.75;;;18.80;;
26774;SDS011;14362;51.902;7.626;2022-11-20T02:06:42;40.28;;;19.85;;
26774;SDS011;14362;51.902;7.626;2022-11-20T02:10:47;33.75;;;17.80;;
26774;SDS011;14362;51.902;7.626;2022-11-20T02:14:48;27.48;;;17.17;;
26774;SDS011;14362;51.902;7.626;2022-11-20T02:18:51;31.65;;;18.23;;
26774;SDS011;14362;51.902;7.626;2022-11-20T02:22:56;37.72;;;20.58;;
26774;SDS011;14362;51.902;7.626;2022-11-20T02:27:02;32.10;;;18.80;;
26774;SDS011;14362;51.902;7.626;2022-11-20T02:35:08;29.60;;;17.55;;
26774;SDS011;14362;51.902;7.626;2022-11-20T02:39:10;34.22;;;18.25;;
26774;SDS011;14362;51.902;7.626;2022-11-20T02:43:16;32.63;;;18.63;;
26774;SDS011;14362;51.902;7.626;2022-11-20T02:47:17;39.67;;;18.38;;
26774;SDS011;14362;51.902;7.626;2022-11-20T02:51:19;32.15;;;16.98;;
26774;SDS011;14362;51.902;7.626;2022-11-20T02:55:20;33.30;;;17.85;;
26774;SDS011;14362;51.902;7.626;2022-11-20T02:59:23;30.73;;;17.45;;
26774;SDS011;14362;51.902;7.626;2022-11-20T03:03:25;31.23;;;17.98;;
26774;SDS011;14362;51.902;7.626;2022-11-20T03:07:26;33.00;;;19.33;;
26774;SDS011;14362;51.902;7.626;2022-11-20T03:11:28;32.58;;;18.38;;
26774;SDS011;14362;51.902;7.626;2022-11-20T03:15:31;30.98;;;18.30;;
26774;SDS011;14362;51.902;7.626;2022-11-20T03:19:33;30.13;;;17.40;;
26774;SDS011;14362;51.902;7.626;2022-11-20T03:23:35;30.50;;;17.55;;
26774;SDS011;14362;51.902;7.626;2022-11-20T03:27:37;29.13;;;17.65;;
26774;SDS011;14362;51.902;7.626;2022-11-20T03:31:40;27.05;;;16.70;;
26774;SDS011;14362;51.902;7.626;2022-11-20T03:35:42;31.30;;;18.73;;
26774;SDS011;14362;51.902;7.626;2022-11-20T03:39:43;28.77;;;17.33;;
26774;SDS011;14362;51.902;7.626;2022-11-20T03:43:46;29.25;;;16.85;;
26774;SDS011;14362;51.902;7.626;2022-11-20T03:47:50;31.83;;;17.05;;
26774;SDS011;14362;51.902;7.626;2022-11-20T03:51:51;33.20;;;18.02;;
26774;SDS011;14362;51.902;7.626;2022-11-20T03:55:53;31.10;;;18.42;;
26774;SDS011;14362;51.902;7.626;2022-11-20T03:59:54;31.45;;;17.50;;
26774;SDS011;14362;51.902;7.626;2022-11-20T04:03:57;29.45;;;17.45;;
26774;SDS011;14362;51.902;7.626;2022-11-20T04:07:59;29.70;;;17.02;;
26774;SDS011;14362;51.902;7.626;2022-11-20T04:12:00;31.90;;;17.25;;
26774;SDS011;14362;51.902;7.626;2022-11-20T04:16:01;28.00;;;16.33;;
26774;SDS011;14362;51.902;7.626;2022-11-20T04:20:05;29.73;;;17.13;;
26774;SDS011;14362;51.902;7.626;2022-11-20T04:24:07;30.25;;;16.83;;
26774;SDS011;14362;51.902;7.626;2022-11-20T04:28:10;29.13;;;16.40;;
26774;SDS011;14362;51.902;7.626;2022-11-20T04:32:11;35.30;;;17.27;;
26774;SDS011;14362;51.902;7.626;2022-11-20T04:36:15;30.42;;;17.45;;
26774;SDS011;14362;51.902;7.626;2022-11-20T04:44:19;28.60;;;17.17;;
26774;SDS011;14362;51.902;7.626;2022-11-20T04:48:21;28.70;;;18.02;;
26774;SDS011;14362;51.902;7.626;2022-11-20T04:52:24;29.30;;;17.58;;
26774;SDS011;14362;51.902;7.626;2022-11-20T04:56:25;30.10;;;17.88;;
26774;SDS011;14362;51.902;7.626;2022-11-20T05:00:26;29.98;;;18.40;;
26774;SDS011;14362;51.902;7.626;2022-11-20T05:04:28;32.00;;;19.40;;
26774;SDS011;14362;51.902;7.626;2022-11-20T05:08:31;28.20;;;17.55;;
26774;SDS011;14362;51.902;7.626;2022-11-20T05:12:33;28.95;;;18.55;;
26774;SDS011;14362;51.902;7.626;2022-11-20T05:16:34;29.73;;;18.38;;
26774;SDS011;14362;51.902;7.626;2022-11-20T05:20:36;30.92;;;18.25;;
26774;SDS011;14362;51.902;7.626;2022-11-20T05:24:39;32.83;;;19.30;;
26774;SDS011;14362;51.902;7.626;2022-11-20T05:28:40;31.40;;;18.58;;
26774;SDS011;14362;51.902;7.626;2022-11-20T05:32:41;29.20;;;18.08;;
26774;SDS011;14362;51.902;7.626;2022-11-20T05:36:43;35.42;;;19.50;;
26774;SDS011;14362;51.902;7.626;2022-11-20T05:40:46;29.17;;;17.65;;
26774;SDS011;14362;51.902;7.626;2022-11-20T05:44:47;35.53;;;19.42;;
26774;SDS011;14362;51.902;7.626;2022-11-20T05:48:48;46.05;;;22.10;;
26774;SDS011;14362;51.902;7.626;2022-11-20T05:52:50;37.35;;;21.30;;
26774;SDS011;14362;51.902;7.626;2022-11-20T05:56:53;39.08;;;20.52;;
26774;SDS011;14362;51.902;7.626;2022-11-20T06:00:54;37.85;;;20.02;;
26774;SDS011;14362;51.902;7.626;2022-11-20T06:04:55;41.05;;;21.48;;
26774;SDS011;14362;51.902;7.626;2022-11-20T06:08:57;46.00;;;22.42;;
26774;SDS011;14362;51.902;7.626;2022-11-20T06:13:00;44.97;;;22.45;;
26774;SDS011;14362;51.902;7.626;2022-11-20T06:17:02;46.78;;;23.20;;
26774;SDS011;14362;51.902;7.626;2022-11-20T06:21:04;50.20;;;23.33;;
26774;SDS011;14362;51.902;7.626;2022-11-20T06:25:07;47.13;;;22.48;;
26774;SDS011;14362;51.902;7.626;2022-11-20T06:29:10;50.20;;;22.73;;
26774;SDS011;14362;51.902;7.626;2022-11-20T06:33:12;53.67;;;23.73;;
26774;SDS011;14362;51.902;7.626;2022-11-20T06:37:13;49.72;;;24.27;;
26774;SDS011;14362;51.902;7.626;2022-11-20T06:41:16;46.80;;;23.20;;
26774;SDS011;14362;51.902;7.626;2022-11-20T06:45:19;51.50;;;23.95;;
26774;SDS011;14362;51.902;7.626;2022-11-20T06:49:21;48.75;;;23.95;;
26774;SDS011;14362;51.902;7.626;2022-11-20T06:53:22;46.95;;;23.58;;
26774;SDS011;14362;51.902;7.626;2022-11-20T06:57:24;52.30;;;24.10;;
26774;SDS011;14362;51.902;7.626;2022-11-20T07:01:27;49.33;;;23.13;;
26774;SDS011;14362;51.902;7.626;2022-11-20T07:05:29;59.38;;;26.38;;
26774;SDS011;14362;51.902;7.626;2022-11-20T07:09:30;58.88;;;27.02;;
26774;SDS011;14362;51.902;7.626;2022-11-20T07:13:31;63.83;;;26.52;;
26774;SDS011;14362;51.902;7.626;2022-11-20T07:17:35;67.95;;;26.77;;
26774;SDS011;14362;51.902;7.626;2022-11-20T07:21:36;69.68;;;28.77;;
26774;SDS011;14362;51.902;7.626;2022-11-20T07:25:37;78.18;;;30.85;;
26774;SDS011;14362;51.902;7.626;2022-11-20T07:29:39;83.30;;;31.40;;
26774;SDS011;14362;51.902;7.626;2022-11-20T07:33:41;101.90;;;31.15;;
26774;SDS011;14362;51.902;7.626;2022-11-20T07:37:43;92.72;;;29.92;;
26774;SDS011;14362;51.902;7.626;2022-11-20T07:41:45;109.78;;;30.45;;
26774;SDS011;14362;51.902;7.626;2022-11-20T07:45:47;92.20;;;30.98;;
26774;SDS011;14362;51.902;7.626;2022-11-20T07:49:49;86.75;;;32.50;;
26774;SDS011;14362;51.902;7.626;2022-11-20T07:53:51;87.72;;;30.52;;
26774;SDS011;14362;51.902;7.626;2022-11-20T07:57:53;77.32;;;30.30;;
26774;SDS011;14362;51.902;7.626;2022-11-20T08:01:55;72.78;;;29.83;;
26774;SDS011;14362;51.902;7.626;2022-11-20T08:05:59;89.78;;;32.35;;
26774;SDS011;14362;51.902;7.626;2022-11-20T08:10:01;82.63;;;31.33;;
26774;SDS011;14362;51.902;7.626;2022-11-20T08:14:03;84.50;;;32.70;;
26774;SDS011;14362;51.902;7.626;2022-11-20T08:18:12;84.53;;;31.60;;
26774;SDS011;14362;51.902;7.626;2022-11-20T08:22:15;74.10;;;30.38;;
26774;SDS011;14362;51.902;7.626;2022-11-20T08:26:17;68.82;;;29.65;;
26774;SDS011;14362;51.902;7.626;2022-11-20T08:30:19;79.30;;;31.73;;
26774;SDS011;14362;51.902;7.626;2022-11-20T08:34:20;76.35;;;30.67;;
26774;SDS011;14362;51.902;7.626;2022-11-20T08:38:23;70.50;;;30.90;;
26774;SDS011;14362;51.902;7.626;2022-11-20T08:42:24;71.30;;;29.15;;
26774;SDS011;14362;51.902;7.626;2022-11-20T08:46:26;76.63;;;32.08;;
26774;SDS011;14362;51.902;7.626;2022-11-20T08:50:29;70.93;;;29.45;;
26774;SDS011;14362;51.902;7.626;2022-11-20T08:54:33;61.05;;;29.05;;
26774;SDS011;14362;51.902;7.626;2022-11-20T08:58:34;65.95;;;28.98;;
26774;SDS011;14362;51.902;7.626;2022-11-20T09:02:36;59.88;;;28.17;;
26774;SDS011;14362;51.902;7.626;2022-11-20T09:06:38;63.05;;;29.05;;
26774;SDS011;14362;51.902;7.626;2022-11-20T09:10:40;51.58;;;26.52;;
26774;SDS011;14362;51.902;7.626;2022-11-20T09:14:42;50.33;;;25.02;;
26774;SDS011;14362;51.902;7.626;2022-11-20T09:18:43;42.65;;;24.95;;
26774;SDS011;14362;51.902;7.626;2022-11-20T09:22:45;46.53;;;25.70;;
26774;SDS011;14362;51.902;7.626;2022-11-20T09:26:47;40.65;;;22.73;;
26774;SDS011;14362;51.902;7.626;2022-11-20T09:30:49;39.97;;;23.63;;
26774;SDS011;14362;51.902;7.626;2022-11-20T09:34:50;40.67;;;23.83;;
26774;SDS011;14362;51.902;7.626;2022-11-20T09:38:52;42.42;;;24.20;;
26774;SDS011;14362;51.902;7.626;2022-11-20T09:42:56;39.58;;;24.17;;
26774;SDS011;14362;51.902;7.626;2022-11-20T09:47:01;38.67;;;23.98;;
26774;SDS011;14362;51.902;7.626;2022-11-20T09:51:11;42.67;;;24.90;;
26774;SDS011;14362;51.902;7.626;2022-11-20T09:55:22;41.33;;;24.05;;
26774;SDS011;14362;51.902;7.626;2022-11-20T09:59:29;39.28;;;23.88;;
26774;SDS011;14362;51.902;7.626;2022-11-20T10:03:38;40.80;;;24.63;;
26774;SDS011;14362;51.902;7.626;2022-11-20T10:07:47;37.25;;;23.85;;
26774;SDS011;14362;51.902;7.626;2022-11-20T10:11:57;38.17;;;23.73;;
26774;SDS011;14362;51.902;7.626;2022-11-20T10:20:21;36.20;;;23.20;;
26774;SDS011;14362;51.902;7.626;2022-11-20T10:24:52;36.72;;;24.40;;
26774;SDS011;14362;51.902;7.626;2022-11-20T10:29:01;40.00;;;24.50;;
26774;SDS011;14362;51.902;7.626;2022-11-20T10:33:13;37.63;;;24.13;;
26774;SDS011;14362;51.902;7.626;2022-11-20T10:37:19;37.75;;;23.52;;
26774;SDS011;14362;51.902;7.626;2022-11-20T10:41:25;40.95;;;25.38;;
26774;SDS011;14362;51.902;7.626;2022-11-20T10:45:33;41.58;;;26.77;;
26774;SDS011;14362;51.902;7.626;2022-11-20T10:49:47;37.42;;;25.08;;
26774;SDS011;14362;51.902;7.626;2022-11-20T10:53:54;37.10;;;25.00;;
26774;SDS011;14362;51.902;7.626;2022-11-20T10:58:01;37.67;;;23.77;;
26774;SDS011;14362;51.902;7.626;2022-11-20T11:02:16;34.78;;;23.38;;
26774;SDS011;14362;51.902;7.626;2022-11-20T11:06:22;37.38;;;24.77;;
26774;SDS011;14362;51.902;7.626;2022-11-20T11:10:32;34.63;;;23.33;;
26774;SDS011;14362;51.902;7.626;2022-11-20T11:14:42;33.92;;;22.55;;
26774;SDS011;14362;51.902;7.626;2022-11-20T11:18:45;34.05;;;22.63;;
26774;SDS011;14362;51.902;7.626;2022-11-20T11:22:49;32.35;;;21.98;;
26774;SDS011;14362;51.902;7.626;2022-11-20T11:26:52;23.13;;;17.15;;
26774;SDS011;14362;51.902;7.626;2022-11-20T11:30:57;22.52;;;16.90;;
26774;SDS011;14362;51.902;7.626;2022-11-20T11:34:59;24.63;;;16.80;;
26774;SDS011;14362;51.902;7.626;2022-11-20T11:39:03;18.98;;;13.65;;
26774;SDS011;14362;51.902;7.626;2022-11-20T11:43:16;17.40;;;13.27;;
26774;SDS011;14362;51.902;7.626;2022-11-20T11:47:43;19.33;;;13.25;;
26774;SDS011;14362;51.902;7.626;2022-11-20T11:51:51;16.25;;;12.98;;
26774;SDS011;14362;51.902;7.626;2022-11-20T11:56:04;16.57;;;12.77;;
26774;SDS011;14362;51.902;7.626;2022-11-20T12:00:09;14.88;;;11.85;;
26774;SDS011;14362;51.902;7.626;2022-11-20T12:04:14;15.93;;;11.32;;
26774;SDS011;14362;51.902;7.626;2022-11-20T12:08:23;14.52;;;11.23;;
26774;SDS011;14362;51.902;7.626;2022-11-20T12:12:29;16.45;;;11.27;;
26774;SDS011;14362;51.902;7.626;2022-11-20T12:16:36;16.20;;;10.73;;
26774;SDS011;14362;51.902;7.626;2022-11-20T12:20:41;15.52;;;11.77;;
26774;SDS011;14362;51.902;7.626;2022-11-20T12:24:51;17.23;;;12.30;;
26774;SDS011;14362;51.902;7.626;2022-11-20T12:29:01;18.48;;;12.65;;
26774;SDS011;14362;51.902;7.626;2022-11-20T12:33:15;17.80;;;12.15;;
26774;SDS011;14362;51.902;7.626;2022-11-20T12:37:30;20.45;;;14.77;;
26774;SDS011;14362;51.902;7.626;2022-11-20T12:41:42;17.73;;;14.25;;
26774;SDS011;14362;51.902;7.626;2022-11-20T12:46:15;21.23;;;15.10;;
26774;SDS011;14362;51.902;7.626;2022-11-20T12:50:28;21.97;;;15.43;;
26774;SDS011;14362;51.902;7.626;2022-11-20T12:54:45;21.83;;;16.20;;
26774;SDS011;14362;51.902;7.626;2022-11-20T12:59:04;26.35;;;18.45;;
26774;SDS011;14362;51.902;7.626;2022-11-20T13:03:27;31.85;;;20.75;;
26774;SDS011;14362;51.902;7.626;2022-11-20T13:07:37;33.70;;;21.83;;
26774;SDS011;14362;51.902;7.626;2022-11-20T13:11:41;37.30;;;23.92;;
26774;SDS011;14362;51.902;7.626;2022-11-20T13:15:48;38.28;;;24.55;;
26774;SDS011;14362;51.902;7.626;2022-11-20T13:19:56;40.33;;;26.23;;
26774;SDS011;14362;51.902;7.626;2022-11-20T13:24:03;44.38;;;28.27;;
26774;SDS011;14362;51.902;7.626;2022-11-20T13:28:25;43.47;;;28.35;;
26774;SDS011;14362;51.902;7.626;2022-11-20T13:32:29;49.95;;;33.13;;
26774;SDS011;14362;51.902;7.626;2022-11-20T13:36:32;43.53;;;27.33;;
26774;SDS011;14362;51.902;7.626;2022-11-20T13:40:35;37.00;;;24.67;;
26774;SDS011;14362;51.902;7.626;2022-11-20T13:44:39;34.53;;;23.25;;
26774;SDS011;14362;51.902;7.626;2022-11-20T13:52:49;36.78;;;24.90;;
26774;SDS011;14362;51.902;7.626;2022-11-20T13:57:01;36.67;;;23.70;;
26774;SDS011;14362;51.902;7.626;2022-11-20T14:01:15;35.78;;;23.85;;
26774;SDS011;14362;51.902;7.626;2022-11-20T14:05:20;37.88;;;24.30;;
26774;SDS011;14362;51.902;7.626;2022-11-20T14:09:26;36.78;;;24.33;;
26774;SDS011;14362;51.902;7.626;2022-11-20T14:13:29;34.97;;;24.40;;
26774;SDS011;14362;51.902;7.626;2022-11-20T14:17:31;40.22;;;25.42;;
26774;SDS011;14362;51.902;7.626;2022-11-20T14:21:35;37.25;;;25.00;;
26774;SDS011;14362;51.902;7.626;2022-11-20T14:25:36;42.00;;;26.92;;
26774;SDS011;14362;51.902;7.626;2022-11-20T14:29:43;38.15;;;24.92;;
26774;SDS011;14362;51.902;7.626;2022-11-20T14:33:46;35.78;;;24.05;;
26774;SDS011;14362;51.902;7.626;2022-11-20T14:37:49;37.72;;;25.27;;
26774;SDS011;14362;51.902;7.626;2022-11-20T14:41:52;37.08;;;25.15;;
26774;SDS011;14362;51.902;7.626;2022-11-20T14:45:55;36.13;;;24.67;;
26774;SDS011;14362;51.902;7.626;2022-11-20T14:49:59;33.95;;;22.60;;
26774;SDS011;14362;51.902;7.626;2022-11-20T14:54:14;35.35;;;23.08;;
26774;SDS011;14362;51.902;7.626;2022-11-20T14:58:20;38.15;;;24.00;;
26774;SDS011;14362;51.902;7.626;2022-11-20T15:02:23;39.33;;;25.20;;
26774;SDS011;14362;51.902;7.626;2022-11-20T15:06:25;40.75;;;26.83;;
26774;SDS011;14362;51.902;7.626;2022-11-20T15:10:29;36.42;;;25.15;;
26774;SDS011;14362;51.902;7.626;2022-11-20T15:14:30;35.05;;;24.65;;
26774;SDS011;14362;51.902;7.626;2022-11-20T15:18:33;35.00;;;25.02;;
26774;SDS011;14362;51.902;7.626;2022-11-20T15:22:38;34.75;;;24.33;;
26774;SDS011;14362;51.902;7.626;2022-11-20T15:26:41;33.42;;;22.95;;
26774;SDS011;14362;51.902;7.626;2022-11-20T15:30:42;34.65;;;22.65;;
26774;SDS011;14362;51.902;7.626;2022-11-20T15:34:44;30.98;;;21.52;;
26774;SDS011;14362;51.902;7.626;2022-11-20T15:38:46;35.00;;;23.77;;
26774;SDS011;14362;51.902;7.626;2022-11-20T15:42:48;32.13;;;23.33;;
26774;SDS011;14362;51.902;7.626;2022-11-20T15:47:06;32.40;;;22.15;;
26774;SDS011;14362;51.902;7.626;2022-11-20T15:51:12;31.50;;;21.88;;
26774;SDS011;14362;51.902;7.626;2022-11-20T15:55:22;27.75;;;19.95;;
26774;SDS011;14362;51.902;7.626;2022-11-20T15:59:25;28.13;;;20.27;;
26774;SDS011;14362;51.902;7.626;2022-11-20T16:03:26;31.40;;;22.17;;
26774;SDS011;14362;51.902;7.626;2022-11-20T16:07:27;28.42;;;21.42;;
26774;SDS011;14362;51.902;7.626;2022-11-20T16:11:29;35.58;;;23.83;;
26774;SDS011;14362;51.902;7.626;2022-11-20T16:15:32;30.15;;;20.60;;
26774;SDS011;14362;51.902;7.626;2022-11-20T16:19:48;32.45;;;21.60;;
26774;SDS011;14362;51.902;7.626;2022-11-20T16:23:50;30.77;;;21.45;;
26774;SDS011;14362;51.902;7.626;2022-11-20T16:27:51;33.05;;;21.52;;
26774;SDS011;14362;51.902;7.626;2022-11-20T16:31:54;32.83;;;22.10;;
26774;SDS011;14362;51.902;7.626;2022-11-20T16:35:57;40.93;;;26.83;;
26774;SDS011;14362;51.902;7.626;2022-11-20T16:39:58;37.33;;;25.02;;
26774;SDS011;14362;51.902;7.626;2022-11-20T16:44:01;32.08;;;21.80;;
26774;SDS011;14362;51.902;7.626;2022-11-20T16:48:08;36.17;;;23.90;;
26774;SDS011;14362;51.902;7.626;2022-11-20T16:52:13;32.08;;;22.27;;
26774;SDS011;14362;51.902;7.626;2022-11-20T16:56:14;36.67;;;23.02;;
26774;SDS011;14362;51.902;7.626;2022-11-20T17:00:20;35.50;;;23.60;;
26774;SDS011;14362;51.902;7.626;2022-11-20T17:04:23;35.28;;;24.13;;
26774;SDS011;14362;51.902;7.626;2022-11-20T17:08:26;37.22;;;25.05;;
26774;SDS011;14362;51.902;7.626;2022-11-20T17:12:29;35.63;;;24.95;;
26774;SDS011;14362;51.902;7.626;2022-11-20T17:16:30;37.85;;;25.23;;
26774;SDS011;14362;51.902;7.626;2022-11-20T17:20:33;42.08;;;26.98;;
26774;SDS011;14362;51.902;7.626;2022-11-20T17:24:34;43.38;;;26.85;;
26774;SDS011;14362;51.902;7.626;2022-11-20T17:28:36;42.03;;;27.27;;
26774;SDS011;14362;51.902;7.626;2022-11-20T17:32:38;41.00;;;25.08;;
26774;SDS011;14362;51.902;7.626;2022-11-20T17:36:45;43.88;;;28.40;;
26774;SDS011;14362;51.902;7.626;2022-11-20T17:40:47;47.17;;;30.30;;
26774;SDS011;14362;51.902;7.626;2022-11-20T17:44:48;41.28;;;26.73;;
26774;SDS011;14362;51.902;7.626;2022-11-20T17:48:50;43.15;;;27.73;;
26774;SDS011;14362;51.902;7.626;2022-11-20T17:52:53;42.40;;;27.50;;
26774;SDS011;14362;51.902;7.626;2022-11-20T17:56:54;48.35;;;29.70;;
26774;SDS011;14362;51.902;7.626;2022-11-20T18:01:14;41.92;;;26.50;;
26774;SDS011;14362;51.902;7.626;2022-11-20T18:05:16;41.80;;;25.50;;
26774;SDS011;14362;51.902;7.626;2022-11-20T18:09:19;43.78;;;26.63;;
26774;SDS011;14362;51.902;7.626;2022-11-20T18:13:20;45.15;;;27.23;;
26774;SDS011;14362;51.902;7.626;2022-11-20T18:17:42;45.55;;;27.73;;
26774;SDS011;14362;51.902;7.626;2022-11-20T18:21:43;44.60;;;26.52;;
26774;SDS011;14362;51.902;7.626;2022-11-20T18:25:46;46.30;;;27.17;;
26774;SDS011;14362;51.902;7.626;2022-11-20T18:29:47;43.72;;;27.08;;
26774;SDS011;14362;51.902;7.626;2022-11-20T18:33:50;44.53;;;27.40;;
26774;SDS011;14362;51.902;7.626;2022-11-20T18:37:53;44.92;;;27.90;;
26774;SDS011;14362;51.902;7.626;2022-11-20T18:41:56;43.80;;;26.58;;
26774;SDS011;14362;51.902;7.626;2022-11-20T18:46:15;42.85;;;26.65;;
26774;SDS011;14362;51.902;7.626;2022-11-20T18:50:18;47.17;;;29.08;;
26774;SDS011;14362;51.902;7.626;2022-11-20T18:54:19;44.88;;;27.73;;
26774;SDS011;14362;51.902;7.626;2022-11-20T18:58:22;46.33;;;28.45;;
26774;SDS011;14362;51.902;7.626;2022-11-20T19:02:24;46.85;;;27.15;;
26774;SDS011;14362;51.902;7.626;2022-11-20T19:06:27;45.65;;;26.48;;
26774;SDS011;14362;51.902;7.626;2022-11-20T19:10:28;47.17;;;27.90;;
26774;SDS011;14362;51.902;7.626;2022-11-20T19:14:31;46.30;;;28.52;;
26774;SDS011;14362;51.902;7.626;2022-11-20T19:18:32;48.15;;;27.35;;
26774;SDS011;14362;51.902;7.626;2022-11-20T19:22:34;46.75;;;26.55;;
26774;SDS011;14362;51.902;7.626;2022-11-20T19:26:36;41.35;;;25.73;;
26774;SDS011;14362;51.902;7.626;2022-11-20T19:30:39;43.47;;;24.75;;
26774;SDS011;14362;51.902;7.626;2022-11-20T19:34:40;37.42;;;22.77;;
26774;SDS011;14362;51.902;7.626;2022-11-20T19:38:44;40.03;;;23.98;;
26774;SDS011;14362;51.902;7.626;2022-11-20T19:42:47;43.47;;;23.25;;
26774;SDS011;14362;51.902;7.626;2022-11-20T19:46:49;35.88;;;22.50;;
26774;SDS011;14362;51.902;7.626;2022-11-20T19:50:51;38.40;;;23.02;;
26774;SDS011;14362;51.902;7.626;2022-11-20T19:54:52;38.03;;;23.10;;
26774;SDS011;14362;51.902;7.626;2022-11-20T19:58:54;35.75;;;21.55;;
26774;SDS011;14362;51.902;7.626;2022-11-20T20:02:58;36.67;;;22.30;;
26774;SDS011;14362;51.902;7.626;2022-11-20T20:06:59;34.47;;;20.75;;
26774;SDS011;14362;51.902;7.626;2022-11-20T20:11:08;35.90;;;20.20;;
26774;SDS011;14362;51.902;7.626;2022-11-20T20:15:10;32.72;;;20.80;;
26774;SDS011;14362;51.902;7.626;2022-11-20T20:19:14;31.90;;;20.95;;
26774;SDS011;14362;51.902;7.626;2022-11-20T20:23:15;34.55;;;21.02;;
26774;SDS011;14362;51.902;7.626;2022-11-20T20:27:17;30.50;;;19.73;;
26774;SDS011;14362;51.902;7.626;2022-11-20T20:31:19;32.95;;;20.05;;
26774;SDS011;14362;51.902;7.626;2022-11-20T20:35:23;28.85;;;18.02;;
26774;SDS011;14362;51.902;7.626;2022-11-20T20:39:25;29.35;;;17.73;;
26774;SDS011;14362;51.902;7.626;2022-11-20T20:43:28;26.58;;;17.08;;
26774;SDS011;14362;51.902;7.626;2022-11-20T20:47:30;27.98;;;17.15;;
26774;SDS011;14362;51.902;7.626;2022-11-20T20:51:34;26.42;;;15.55;;
26774;SDS011;14362;51.902;7.626;2022-11-20T20:55:35;23.85;;;16.02;;
26774;SDS011;14362;51.902;7.626;2022-11-20T20:59:37;27.48;;;15.85;;
26774;SDS011;14362;51.902;7.626;2022-11-20T21:03:39;26.73;;;16.92;;
26774;SDS011;14362;51.902;7.626;2022-11-20T21:07:41;30.05;;;17.08;;
26774;SDS011;14362;51.902;7.626;2022-11-20T21:11:57;26.70;;;17.25;;
26774;SDS011;14362;51.902;7.626;2022-11-20T21:15:58;29.33;;;18.23;;
26774;SDS011;14362;51.902;7.626;2022-11-20T21:20:00;27.23;;;17.33;;
26774;SDS011;14362;51.902;7.626;2022-11-20T21:24:23;24.70;;;16.25;;
26774;SDS011;14362;51.902;7.626;2022-11-20T21:28:24;24.17;;;15.32;;
26774;SDS011;14362;51.902;7.626;2022-11-20T21:32:26;23.45;;;14.80;;
26774;SDS011;14362;51.902;7.626;2022-11-20T21:36:28;22.08;;;15.02;;
26774;SDS011;14362;51.902;7.626;2022-11-20T21:40:32;21.63;;;14.00;;
26774;SDS011;14362;51.902;7.626;2022-11-20T21:44:33;23.02;;;14.05;;
26774;SDS011;14362;51.902;7.626;2022-11-20T21:48:35;25.98;;;15.65;;
26774;SDS011;14362;51.902;7.626;2022-11-20T21:52:38;24.08;;;15.98;;
26774;SDS011;14362;51.902;7.626;2022-11-20T21:56:41;22.23;;;15.40;;
26774;SDS011;14362;51.902;7.626;2022-11-20T22:00:42;22.75;;;14.32;;
26774;SDS011;14362;51.902;7.626;2022-11-20T22:04:44;24.00;;;15.32;;
26774;SDS011;14362;51.902;7.626;2022-11-20T22:08:45;24.40;;;15.13;;
26774;SDS011;14362;51.902;7.626;2022-11-20T22:12:49;25.77;;;16.13;;
26774;SDS011;14362;51.902;7.626;2022-11-20T22:16:51;24.10;;;15.05;;
26774;SDS011;14362;51.902;7.626;2022-11-20T22:20:53;23.85;;;15.40;;
26774;SDS011;14362;51.902;7.626;2022-11-20T22:24:54;24.60;;;16.17;;
26774;SDS011;14362;51.902;7.626;2022-11-20T22:28:57;25.65;;;16.30;;
26774;SDS011;14362;51.902;7.626;2022-11-20T22:32:59;28.40;;;17.05;;
26774;SDS011;14362;51.902;7.626;2022-11-20T22:37:01;26.23;;;17.33;;
26774;SDS011;14362;51.902;7.626;2022-11-20T22:41:02;29.13;;;18.13;;
26774;SDS011;14362;51.902;7.626;2022-11-20T22:45:06;30.02;;;18.23;;
26774;SDS011;14362;51.902;7.626;2022-11-20T22:49:08;29.50;;;18.95;;
26774;SDS011;14362;51.902;7.626;2022-11-20T22:53:10;34.67;;;20.98;;
26774;SDS011;14362;51.902;7.626;2022-11-20T22:57:11;35.90;;;21.40;;
26774;SDS011;14362;51.902;7.626;2022-11-20T23:01:14;35.65;;;22.20;;
26774;SDS011;14362;51.902;7.626;2022-11-20T23:05:17;33.97;;;21.13;;
26774;SDS011;14362;51.902;7.626;2022-11-20T23:09:18;33.75;;;20.42;;
26774;SDS011;14362;51.902;7.626;2022-11-20T23:13:20;35.63;;;21.27;;
26774;SDS011;14362;51.902;7.626;2022-11-20T23:17:22;38.85;;;23.40;;
26774;SDS011;14362;51.902;7.626;2022-11-20T23:21:24;37.10;;;21.90;;
26774;SDS011;14362;51.902;7.626;2022-11-20T23:25:26;36.78;;;21.83;;
26774;SDS011;14362;51.902;7.626;2022-11-20T23:29:27;35.97;;;20.50;;
26774;SDS011;14362;51.902;7.626;2022-11-20T23:33:30;35.42;;;22.02;;
26774;SDS011;14362;51.902;7.626;2022-11-20T23:37:34;36.78;;;21.77;;
26774;SDS011;14362;51.902;7.626;2022-11-20T23:41:36;38.67;;;22.35;;
26774;SDS011;14362;51.902;7.626;2022-11-20T23:45:37;34.60;;;21.45;;
26774;SDS011;14362;51.902;7.626;2022-11-20T23:49:40;38.58;;;22.25;;
26774;SDS011;14362;51.902;7.626;2022-11-20T23:53:42;37.28;;;22.38;;
26774;SDS011;14362;51.902;7.626;2022-11-20T23:57:43;37.20;;;22.45;;
